Briefing drone pour Le chambon-feugerolles

Rechercher une autre localisation

Conditions de vol :


Nous sommes le : Jeudi 24 juin 2021
Il est 00:54 UTC (02:54 LT)

Lever de soleil : 03:29 UTC (05:29 LT)
Coucher de soleil : 20:01 UTC (22:01 LT)

Météo

L'essentiel des conditions de vol

VIGILANCE MÉTÉO FRANCE - Loire (42)
Vigilance Jaune : Orages / Pluie-inondation
CARTE TEMSI
CARTES DES FRONTS
METAR de LFMH
LFMH 240030Z AUTO 16002KT 9999 1700 NSC 13/13 Q1018

Date d'émission: 24/06/2021
Heure d'émission: 00:30 UTC
Vent: 160° pour 2 KT (4 km/h)
Visibilité horizontale: > 10 km
Plafond : Pas de nuages significatifs (NSC)
Température: 13 °C
Point de rosée: 13 °C
Humidité: 100%
Pression (QNH): 1018 hPa
TAF de LFMH
LFMH 161901Z 1619/1712 CNL

Conditions prévues :

Heure d'émission : Bulletin éffectué le 16 à 19:00 UTC
Prévision : Valide du 16 a 19:00 UTC au 17 a 12:00 UTC
Nuages : à 0ft (0 m)
WEBCAM POUR LE CHAMBON-FEUGEROLLES

Réglementation

Voler en sécurité

CARTES AERONAUTIQUE 1/500.000
CARTES VAC (LFMH)
SUP AIP




Chargement des AIP...
NOTAM (LE CHAMBON-FEUGEROLLES + Terrain à proximité / FIR )




Chargement des NOTAMS...
CONTACT PREFECTURE 42


Avertissement : Les données mises à disposition sont indicatives. Oxygène Drone ne pourra être tenu responsable de dégâts causés aux biens et aux personnes.